createdAt,value
2023-12-09T00:00:44.646Z,5.68
2023-12-09T00:03:11.584Z,5.95
2023-12-09T00:05:39.009Z,6.50
2023-12-09T00:08:06.528Z,6.55
2023-12-09T00:10:34.821Z,4.25
2023-12-09T00:13:01.963Z,6.00
2023-12-09T00:15:28.836Z,6.10
2023-12-09T00:17:55.748Z,5.95
2023-12-09T00:20:22.657Z,6.97
2023-12-09T00:22:49.580Z,7.38
2023-12-09T00:25:16.553Z,7.53
2023-12-09T00:27:44.838Z,9.73
2023-12-09T00:30:12.305Z,6.55
2023-12-09T00:32:39.329Z,5.32
2023-12-09T00:35:06.797Z,6.38
2023-12-09T00:37:33.674Z,5.55
2023-12-09T00:40:00.641Z,6.03
2023-12-09T00:42:27.855Z,6.22
2023-12-09T00:44:59.287Z,5.25
2023-12-09T00:47:26.167Z,7.65
2023-12-09T00:49:53.109Z,6.60
2023-12-09T00:52:20.168Z,6.90
2023-12-09T00:54:47.058Z,5.43
2023-12-09T00:57:14.006Z,5.68
2023-12-09T00:59:41.022Z,5.68
2023-12-09T01:02:09.261Z,6.22
2023-12-09T01:04:36.224Z,5.65
2023-12-09T01:07:03.124Z,8.10
2023-12-09T01:09:30.544Z,5.72
2023-12-09T01:11:57.478Z,6.57
2023-12-09T01:14:24.446Z,8.52
2023-12-09T01:16:51.365Z,8.73
2023-12-09T01:19:19.569Z,8.20
2023-12-09T01:21:46.474Z,7.65
2023-12-09T01:24:13.524Z,7.45
2023-12-09T01:26:40.533Z,8.00
2023-12-09T01:29:07.365Z,7.07
2023-12-09T01:31:34.265Z,7.75
2023-12-09T01:34:01.255Z,6.85
2023-12-09T01:36:29.722Z,6.00
2023-12-09T01:38:56.697Z,6.43
2023-12-09T01:41:23.792Z,6.93
2023-12-09T01:43:51.229Z,7.40
2023-12-09T01:46:20.458Z,7.63
2023-12-09T01:48:48.194Z,7.95
2023-12-09T01:51:16.914Z,6.38
2023-12-09T01:53:45.562Z,5.75
2023-12-09T01:56:15.224Z,6.10
2023-12-09T01:58:42.302Z,6.40
2023-12-09T02:01:09.895Z,6.32
2023-12-09T02:03:38.101Z,6.57
2023-12-09T02:06:05.389Z,5.90
2023-12-09T02:08:32.623Z,5.65
2023-12-09T02:11:11.405Z,6.53
2023-12-09T02:13:56.035Z,6.03
2023-12-09T02:16:28.544Z,5.78
2023-12-09T02:18:58.042Z,5.55
2023-12-09T02:21:25.012Z,6.38
2023-12-09T02:23:53.286Z,5.45
2023-12-09T02:26:24.801Z,6.53
2023-12-09T02:28:57.848Z,5.10
2023-12-09T02:31:30.380Z,5.22
2023-12-09T02:33:58.460Z,5.93
2023-12-09T02:36:27.663Z,6.03
2023-12-09T02:38:57.534Z,5.72
2023-12-09T02:41:24.765Z,5.50
2023-12-09T02:43:51.745Z,5.32
2023-12-09T02:46:18.582Z,5.55
2023-12-09T02:48:45.651Z,6.05
2023-12-09T02:51:12.614Z,5.82
2023-12-09T02:53:39.636Z,5.72
2023-12-09T02:56:08.976Z,4.80
2023-12-09T02:58:35.878Z,5.13
2023-12-09T03:01:02.812Z,5.13
2023-12-09T03:03:29.717Z,4.07
2023-12-09T03:05:56.647Z,5.05
2023-12-09T03:08:23.483Z,4.97
2023-12-09T03:10:50.374Z,4.15
2023-12-09T03:13:18.647Z,3.70
2023-12-09T03:15:45.535Z,4.47
2023-12-09T03:18:12.519Z,3.95
2023-12-09T03:20:39.579Z,4.78
2023-12-09T03:23:06.490Z,3.50
2023-12-09T03:25:33.361Z,5.82
2023-12-09T03:28:01.502Z,4.00
2023-12-09T03:30:30.050Z,3.78
2023-12-09T03:32:57.195Z,3.90
2023-12-09T03:35:24.153Z,3.72
2023-12-09T03:37:51.025Z,4.07
2023-12-09T03:40:17.949Z,4.03
2023-12-09T03:42:44.865Z,3.45
2023-12-09T03:45:12.238Z,3.97
2023-12-09T03:47:40.560Z,3.45
2023-12-09T03:50:08.300Z,3.72
2023-12-09T03:52:35.128Z,3.72
2023-12-09T03:55:02.092Z,3.45
2023-12-09T03:57:29.100Z,3.35
2023-12-09T03:59:56.025Z,4.55
2023-12-09T04:02:22.898Z,3.92
2023-12-09T04:04:51.096Z,3.53
2023-12-09T04:07:17.956Z,4.05
2023-12-09T04:09:44.786Z,4.30
2023-12-09T04:12:11.953Z,5.85
2023-12-09T04:14:38.853Z,3.85
2023-12-09T04:17:05.838Z,5.03
2023-12-09T04:19:32.867Z,4.35
2023-12-09T04:22:01.601Z,6.10
2023-12-09T04:24:28.521Z,6.53
2023-12-09T04:26:55.492Z,5.65
2023-12-09T04:29:22.358Z,6.07
2023-12-09T04:31:49.212Z,7.82
2023-12-09T04:34:16.183Z,10.40
2023-12-09T04:36:43.172Z,7.07
2023-12-09T04:39:11.499Z,6.18
2023-12-09T04:41:39.020Z,11.02
2023-12-09T04:44:05.884Z,7.78
2023-12-09T04:46:32.810Z,8.25
2023-12-09T04:48:59.822Z,8.20
2023-12-09T04:51:27.016Z,8.27
2023-12-09T04:53:53.914Z,7.43
2023-12-09T04:56:22.372Z,5.38
2023-12-09T04:58:49.292Z,8.93
2023-12-09T05:01:16.293Z,7.70
2023-12-09T05:03:43.280Z,9.57
2023-12-09T05:06:10.436Z,9.80
2023-12-09T05:08:37.363Z,6.25
2023-12-09T05:11:04.545Z,7.93
2023-12-09T05:13:32.840Z,12.18
2023-12-09T05:15:59.713Z,10.43
2023-12-09T05:18:26.728Z,9.48
2023-12-09T05:20:53.849Z,5.90
2023-12-09T05:23:20.746Z,8.90
2023-12-09T05:25:47.641Z,7.35
2023-12-09T05:28:14.593Z,7.68
2023-12-09T05:30:43.208Z,11.82
2023-12-09T05:33:10.370Z,9.98
2023-12-09T05:35:37.437Z,6.70
2023-12-09T05:38:04.436Z,8.45
2023-12-09T05:40:34.250Z,6.90
2023-12-09T05:43:02.629Z,8.55
2023-12-09T05:45:29.548Z,8.10
2023-12-09T05:47:59.322Z,8.77
2023-12-09T05:50:26.388Z,8.43
2023-12-09T05:52:53.348Z,7.00
2023-12-09T05:55:20.243Z,8.10
2023-12-09T05:57:47.201Z,7.20
2023-12-09T06:00:14.706Z,11.10
2023-12-09T06:02:41.606Z,10.23
2023-12-09T06:05:10.301Z,5.88
2023-12-09T06:07:37.243Z,6.78
2023-12-09T06:10:05.806Z,7.53
2023-12-09T06:12:32.894Z,4.93
2023-12-09T06:15:00.021Z,7.60
2023-12-09T06:17:26.983Z,8.02
2023-12-09T06:19:53.983Z,7.43
2023-12-09T06:22:22.376Z,6.70
2023-12-09T06:24:49.416Z,5.30
2023-12-09T06:27:16.496Z,5.75
2023-12-09T06:29:45.182Z,5.85
2023-12-09T06:32:12.099Z,10.05
2023-12-09T06:34:39.338Z,5.82
2023-12-09T06:37:06.412Z,4.88
2023-12-09T06:39:34.691Z,5.22
2023-12-09T06:42:01.640Z,5.68
2023-12-09T06:44:28.657Z,6.40
2023-12-09T06:46:55.747Z,6.15
2023-12-09T06:49:22.738Z,6.45
2023-12-09T06:51:50.054Z,8.95
2023-12-09T06:54:17.194Z,4.50
2023-12-09T06:56:45.491Z,6.00
2023-12-09T06:59:12.407Z,4.97
2023-12-09T07:01:39.439Z,7.22
2023-12-09T07:04:06.407Z,6.00
2023-12-09T07:06:33.492Z,6.60
2023-12-09T07:09:00.465Z,6.78
2023-12-09T07:11:27.564Z,7.28
2023-12-09T07:13:55.817Z,6.63
2023-12-09T07:16:22.724Z,6.45
2023-12-09T07:18:50.365Z,5.88
2023-12-09T07:21:18.028Z,6.50
2023-12-09T07:23:45.361Z,6.88
2023-12-09T07:26:12.452Z,6.22
2023-12-09T07:28:39.363Z,9.98
2023-12-09T07:31:07.776Z,6.97
2023-12-09T07:33:34.903Z,4.93
2023-12-09T07:36:02.132Z,5.53
2023-12-09T07:38:29.201Z,6.93
2023-12-09T07:40:56.134Z,6.53
2023-12-09T07:43:23.020Z,7.78
2023-12-09T07:45:50.158Z,5.28
2023-12-09T07:48:18.735Z,12.75
2023-12-09T07:50:45.784Z,7.50
2023-12-09T07:53:12.756Z,8.52
2023-12-09T07:55:39.642Z,9.90
2023-12-09T07:58:06.525Z,10.10
2023-12-09T08:00:33.556Z,11.20
2023-12-09T08:03:04.367Z,7.93
2023-12-09T08:05:32.786Z,9.15
2023-12-09T08:07:59.670Z,8.40
2023-12-09T08:10:26.706Z,5.32
2023-12-09T08:12:53.582Z,7.57
2023-12-09T08:15:20.522Z,7.68
2023-12-09T08:17:47.549Z,7.13
2023-12-09T08:20:14.523Z,5.45
2023-12-09T08:22:42.729Z,9.05
2023-12-09T08:25:10.048Z,6.80
2023-12-09T08:27:37.234Z,5.57
2023-12-09T08:30:05.034Z,11.43
2023-12-09T08:32:31.989Z,5.15
2023-12-09T08:35:07.019Z,10.38
2023-12-09T08:37:36.577Z,8.63
2023-12-09T08:40:06.903Z,10.95
2023-12-09T08:42:33.897Z,5.00
2023-12-09T08:45:00.830Z,7.07
2023-12-09T08:47:27.744Z,6.45
2023-12-09T08:49:54.805Z,11.63
2023-12-09T08:52:21.703Z,8.18
2023-12-09T08:54:48.596Z,8.00
2023-12-09T08:57:17.011Z,5.40
2023-12-09T08:59:43.921Z,6.63
2023-12-09T09:02:10.773Z,5.95
2023-12-09T09:04:37.665Z,7.00
2023-12-09T09:07:04.856Z,5.60
2023-12-09T09:09:31.865Z,5.68
2023-12-09T09:12:00.142Z,6.10
2023-12-09T09:14:28.505Z,4.97
2023-12-09T09:16:55.409Z,5.75
2023-12-09T09:19:22.474Z,4.93
2023-12-09T09:21:49.447Z,5.72
2023-12-09T09:24:16.458Z,4.35
2023-12-09T09:26:43.407Z,4.05
2023-12-09T09:29:10.434Z,3.85
2023-12-09T09:31:38.893Z,6.85
2023-12-09T09:34:06.191Z,5.97
2023-12-09T09:36:33.420Z,5.80
2023-12-09T09:39:00.363Z,7.93
2023-12-09T09:41:32.376Z,4.95
2023-12-09T09:44:05.427Z,12.45
2023-12-09T09:46:34.750Z,3.72
2023-12-09T09:49:04.247Z,4.18
2023-12-09T09:51:32.520Z,7.38
2023-12-09T09:54:08.440Z,5.10
2023-12-09T09:56:35.882Z,6.20
2023-12-09T09:59:02.837Z,3.22
2023-12-09T10:01:31.143Z,2.17
2023-12-09T10:03:58.203Z,2.28
2023-12-09T10:06:27.816Z,3.55
2023-12-09T10:08:55.240Z,8.25
2023-12-09T10:11:22.168Z,4.43
2023-12-09T10:13:49.080Z,10.70
2023-12-09T10:16:15.978Z,5.03
2023-12-09T10:18:45.532Z,4.68
2023-12-09T10:21:12.688Z,8.98
2023-12-09T10:23:40.968Z,7.55
2023-12-09T10:26:08.673Z,12.52
2023-12-09T10:28:35.641Z,8.43
2023-12-09T10:31:03.097Z,7.53
2023-12-09T10:33:30.705Z,7.05
2023-12-09T10:35:57.914Z,6.90
2023-12-09T10:38:24.789Z,4.20
2023-12-09T10:40:53.236Z,5.68
2023-12-09T10:43:20.180Z,6.45
2023-12-09T10:45:47.485Z,7.22
2023-12-09T10:48:14.712Z,4.45
2023-12-09T10:50:44.808Z,3.47
2023-12-09T10:53:11.915Z,3.03
2023-12-09T10:55:38.915Z,3.33
2023-12-09T10:58:07.947Z,4.70
2023-12-09T11:00:35.294Z,3.55
2023-12-09T11:03:03.034Z,3.38
2023-12-09T11:05:30.417Z,4.03
2023-12-09T11:07:58.114Z,3.47
2023-12-09T11:10:25.486Z,3.92
2023-12-09T11:12:52.410Z,3.58
2023-12-09T11:15:22.873Z,4.13
2023-12-09T11:17:53.623Z,3.40
2023-12-09T11:20:22.344Z,2.55
2023-12-09T11:22:49.559Z,6.45
2023-12-09T11:25:21.870Z,2.80
2023-12-09T11:27:50.399Z,3.50
2023-12-09T11:30:32.099Z,5.43
2023-12-09T11:32:59.619Z,4.13
2023-12-09T11:35:27.604Z,3.78
2023-12-09T11:37:55.455Z,3.08
2023-12-09T11:40:22.548Z,3.75
2023-12-09T11:42:50.743Z,3.75
2023-12-09T11:45:17.708Z,3.80
2023-12-09T11:47:47.978Z,3.53
2023-12-09T11:50:15.948Z,4.43
2023-12-09T11:52:43.483Z,4.13
2023-12-09T11:55:10.656Z,1.80
2023-12-09T11:57:40.045Z,3.10
2023-12-09T12:00:08.368Z,2.70
2023-12-09T12:02:35.341Z,4.85
2023-12-09T12:05:03.979Z,6.47
2023-12-09T12:07:30.934Z,4.53
2023-12-09T12:09:57.825Z,5.45
2023-12-09T12:12:27.888Z,10.73
2023-12-09T12:14:55.107Z,3.90
2023-12-09T12:17:22.304Z,2.30
2023-12-09T12:19:49.777Z,3.75
2023-12-09T12:22:19.013Z,3.58
2023-12-09T12:24:46.678Z,4.20
2023-12-09T12:27:13.822Z,5.18
2023-12-09T12:29:41.341Z,3.95
2023-12-09T12:32:09.080Z,3.88
2023-12-09T12:34:36.097Z,2.38
2023-12-09T12:37:03.423Z,3.83
2023-12-09T12:39:31.774Z,3.13
2023-12-09T12:41:58.875Z,4.55
2023-12-09T12:44:25.957Z,6.53
2023-12-09T12:46:52.812Z,4.38
2023-12-09T12:49:19.907Z,5.50
2023-12-09T12:51:47.080Z,3.00
2023-12-09T12:54:14.337Z,4.50
2023-12-09T12:56:42.819Z,5.63
2023-12-09T12:59:09.790Z,2.63
2023-12-09T13:01:36.807Z,6.75
2023-12-09T13:04:04.241Z,3.75
2023-12-09T13:06:31.347Z,4.78
2023-12-09T13:08:58.663Z,4.93
2023-12-09T13:11:25.633Z,8.85
2023-12-09T13:13:54.028Z,5.13
2023-12-09T13:16:20.974Z,6.80
2023-12-09T13:18:48.043Z,4.30
2023-12-09T13:21:15.037Z,5.47
2023-12-09T13:23:42.027Z,5.45
2023-12-09T13:26:09.221Z,5.53
2023-12-09T13:28:36.270Z,4.72
2023-12-09T13:31:05.013Z,6.20
2023-12-09T13:33:32.004Z,2.45
2023-12-09T13:35:59.107Z,6.80
2023-12-09T13:38:26.419Z,8.38
2023-12-09T13:40:53.362Z,7.57
2023-12-09T13:43:20.265Z,7.53
2023-12-09T13:45:47.289Z,3.92
2023-12-09T13:48:15.830Z,2.33
2023-12-09T13:50:42.943Z,6.20
2023-12-09T13:53:09.846Z,5.35
2023-12-09T13:55:36.835Z,5.07
2023-12-09T13:58:03.781Z,3.13
2023-12-09T14:00:30.911Z,4.10
2023-12-09T14:02:57.956Z,4.20
2023-12-09T14:05:26.279Z,5.68
2023-12-09T14:07:53.291Z,3.72
2023-12-09T14:10:20.218Z,3.38
2023-12-09T14:12:47.184Z,4.88
2023-12-09T14:15:14.452Z,4.68
2023-12-09T14:17:41.943Z,6.53
2023-12-09T14:20:09.747Z,4.15
2023-12-09T14:22:38.334Z,4.63
2023-12-09T14:25:06.000Z,7.22
2023-12-09T14:27:33.091Z,4.82
2023-12-09T14:30:00.065Z,3.70
2023-12-09T14:32:27.163Z,3.45
2023-12-09T14:34:54.480Z,3.78
2023-12-09T14:37:21.652Z,4.03
2023-12-09T14:39:49.988Z,2.92
2023-12-09T14:42:17.068Z,4.30
2023-12-09T14:44:44.005Z,4.25
2023-12-09T14:47:10.993Z,6.18
2023-12-09T14:49:38.045Z,5.63
2023-12-09T14:52:05.631Z,3.80
2023-12-09T14:54:32.633Z,4.80
2023-12-09T14:57:01.011Z,2.88
2023-12-09T14:59:28.041Z,3.78
2023-12-09T15:01:54.989Z,4.57
2023-12-09T15:04:22.054Z,4.68
2023-12-09T15:06:50.217Z,4.43
2023-12-09T15:09:17.478Z,6.00
2023-12-09T15:11:44.505Z,4.57
2023-12-09T15:14:12.848Z,5.70
2023-12-09T15:16:39.984Z,5.82
2023-12-09T15:19:07.118Z,3.90
2023-12-09T15:21:34.333Z,4.47
2023-12-09T15:24:01.761Z,5.07
2023-12-09T15:26:29.044Z,4.57
2023-12-09T15:28:56.040Z,6.97
2023-12-09T15:31:24.631Z,6.15
2023-12-09T15:33:52.133Z,4.50
2023-12-09T15:36:19.319Z,6.25
2023-12-09T15:38:46.287Z,4.65
2023-12-09T15:41:13.306Z,5.45
2023-12-09T15:43:40.251Z,4.28
2023-12-09T15:46:07.829Z,5.20
2023-12-09T15:48:36.466Z,5.95
2023-12-09T15:51:03.750Z,5.95
2023-12-09T15:53:30.886Z,6.43
2023-12-09T15:55:57.839Z,4.93
2023-12-09T15:58:24.775Z,6.38
2023-12-09T16:00:51.787Z,5.80
2023-12-09T16:03:18.892Z,7.95
2023-12-09T16:05:47.342Z,5.55
2023-12-09T16:08:14.260Z,4.15
2023-12-09T16:10:41.140Z,7.70
2023-12-09T16:13:08.152Z,5.80
2023-12-09T16:15:35.044Z,6.10
2023-12-09T16:18:02.235Z,6.10
2023-12-09T16:20:29.156Z,5.40
2023-12-09T16:22:57.580Z,5.45
2023-12-09T16:25:24.457Z,5.80
2023-12-09T16:27:51.449Z,8.02
2023-12-09T16:30:18.690Z,8.45
2023-12-09T16:32:45.658Z,7.18
2023-12-09T16:35:12.792Z,8.98
2023-12-09T16:37:39.748Z,7.57
2023-12-09T16:40:09.281Z,7.10
2023-12-09T16:42:36.286Z,7.65
2023-12-09T16:45:03.420Z,6.32
2023-12-09T16:47:30.473Z,7.13
2023-12-09T16:49:57.425Z,6.30
2023-12-09T16:52:24.555Z,7.45
2023-12-09T16:54:51.663Z,6.82
2023-12-09T16:57:20.069Z,5.97
2023-12-09T16:59:46.996Z,6.07
2023-12-09T17:02:13.962Z,5.93
2023-12-09T17:04:41.159Z,7.68
2023-12-09T17:07:08.254Z,16.40
2023-12-09T17:09:35.188Z,6.10
2023-12-09T17:12:02.310Z,5.22
2023-12-09T17:14:30.668Z,5.78
2023-12-09T17:16:58.441Z,6.40
2023-12-09T17:19:26.536Z,5.65
2023-12-09T17:21:53.578Z,6.30
2023-12-09T17:24:20.613Z,5.75
2023-12-09T17:26:47.624Z,8.32
2023-12-09T17:29:14.566Z,7.25
2023-12-09T17:31:44.348Z,7.13
2023-12-09T17:34:12.723Z,7.85
2023-12-09T17:36:39.826Z,7.95
2023-12-09T17:39:06.728Z,6.90
2023-12-09T17:41:33.776Z,8.35
2023-12-09T17:44:00.734Z,9.30
2023-12-09T17:46:27.667Z,10.30
2023-12-09T17:48:56.040Z,6.53
2023-12-09T17:51:23.224Z,7.22
2023-12-09T17:53:50.162Z,9.07
2023-12-09T17:56:17.075Z,6.60
2023-12-09T17:58:44.268Z,6.80
2023-12-09T18:01:11.264Z,7.68
2023-12-09T18:03:38.347Z,5.82
2023-12-09T18:06:07.343Z,5.47
2023-12-09T18:08:34.300Z,7.80
2023-12-09T18:11:01.230Z,8.77
2023-12-09T18:13:28.331Z,6.35
2023-12-09T18:15:55.363Z,7.07
2023-12-09T18:18:22.502Z,5.93
2023-12-09T18:20:49.558Z,6.72
2023-12-09T18:23:17.827Z,4.63
2023-12-09T18:25:44.819Z,6.40
2023-12-09T18:28:11.725Z,6.70
2023-12-09T18:30:38.819Z,5.63
2023-12-09T18:33:05.908Z,7.95
2023-12-09T18:35:32.925Z,7.38
2023-12-09T18:37:59.874Z,8.73
2023-12-09T18:40:28.282Z,10.23
2023-12-09T18:42:55.328Z,10.68
2023-12-09T18:45:22.268Z,6.63
2023-12-09T18:47:49.185Z,13.02
2023-12-09T18:50:16.409Z,7.47
2023-12-09T18:52:43.417Z,11.55
2023-12-09T18:55:10.325Z,7.80
2023-12-09T18:57:40.076Z,9.30
2023-12-09T19:00:08.279Z,8.88
2023-12-09T19:02:35.589Z,8.85
2023-12-09T19:05:03.041Z,9.32
2023-12-09T19:07:30.056Z,7.03
2023-12-09T19:09:57.008Z,6.65
2023-12-09T19:12:24.045Z,8.15
2023-12-09T19:14:52.375Z,10.88
2023-12-09T19:17:19.360Z,9.35
2023-12-09T19:19:46.822Z,9.40
2023-12-09T19:22:13.826Z,8.25
2023-12-09T19:24:40.830Z,8.57
2023-12-09T19:27:07.942Z,6.63
2023-12-09T19:29:34.874Z,8.25
2023-12-09T19:32:03.236Z,8.93
2023-12-09T19:34:30.323Z,8.30
2023-12-09T19:36:57.317Z,8.25
2023-12-09T19:39:24.334Z,8.88
2023-12-09T19:41:51.225Z,7.82
2023-12-09T19:44:18.224Z,7.60
2023-12-09T19:46:45.199Z,10.93
2023-12-09T19:49:13.596Z,7.97
2023-12-09T19:51:40.921Z,8.23
2023-12-09T19:54:07.867Z,9.25
2023-12-09T19:56:34.800Z,9.13
2023-12-09T19:59:01.732Z,13.63
2023-12-09T20:01:28.739Z,6.93
2023-12-09T20:03:55.746Z,7.50
2023-12-09T20:06:24.352Z,10.77
2023-12-09T20:08:51.261Z,12.00
2023-12-09T20:11:18.192Z,7.32
2023-12-09T20:13:45.157Z,9.07
2023-12-09T20:16:13.333Z,7.20
2023-12-09T20:18:40.424Z,7.57
2023-12-09T20:21:07.867Z,8.90
2023-12-09T20:23:36.175Z,6.55
2023-12-09T20:26:03.184Z,6.70
2023-12-09T20:28:30.179Z,7.03
2023-12-09T20:30:57.193Z,5.85
2023-12-09T20:33:24.244Z,7.32
2023-12-09T20:35:51.576Z,6.13
2023-12-09T20:38:18.558Z,6.60
2023-12-09T20:40:46.950Z,5.55
2023-12-09T20:43:14.085Z,8.15
2023-12-09T20:45:41.392Z,7.65
2023-12-09T20:48:08.416Z,5.38
2023-12-09T20:50:35.396Z,5.97
2023-12-09T20:53:02.313Z,5.45
2023-12-09T20:55:29.289Z,8.43
2023-12-09T20:57:57.579Z,5.22
2023-12-09T21:00:24.525Z,6.28
2023-12-09T21:02:51.653Z,6.68
2023-12-09T21:05:18.587Z,5.35
2023-12-09T21:07:45.472Z,4.13
2023-12-09T21:10:12.348Z,3.70
2023-12-09T21:12:39.351Z,5.05
2023-12-09T21:15:08.288Z,3.90
2023-12-09T21:17:35.306Z,4.57
2023-12-09T21:20:02.248Z,4.07
2023-12-09T21:22:29.428Z,5.78
2023-12-09T21:24:56.433Z,3.50
2023-12-09T21:27:23.406Z,4.25
2023-12-09T21:29:50.334Z,3.47
2023-12-09T21:32:18.571Z,3.72
2023-12-09T21:34:45.608Z,4.22
2023-12-09T21:37:12.582Z,4.35
2023-12-09T21:39:39.559Z,3.15
2023-12-09T21:42:06.619Z,4.35
2023-12-09T21:44:33.583Z,3.15
2023-12-09T21:47:00.578Z,2.33
2023-12-09T21:49:29.125Z,3.70
2023-12-09T21:51:56.260Z,2.95
2023-12-09T21:54:23.191Z,2.15
2023-12-09T21:56:50.486Z,3.17
2023-12-09T21:59:17.458Z,3.60
2023-12-09T22:01:44.398Z,2.92
2023-12-09T22:04:11.630Z,2.70
2023-12-09T22:06:40.135Z,3.13
2023-12-09T22:09:07.125Z,2.00
2023-12-09T22:11:34.033Z,1.98
2023-12-09T22:14:01.053Z,1.73
2023-12-09T22:16:27.977Z,1.48
2023-12-09T22:18:55.044Z,2.40
2023-12-09T22:21:22.096Z,1.77
2023-12-09T22:23:50.396Z,0.85
2023-12-09T22:26:17.245Z,2.65
2023-12-09T22:28:44.150Z,3.42
2023-12-09T22:31:11.024Z,1.60
2023-12-09T22:33:38.167Z,1.27
2023-12-09T22:36:06.078Z,1.13
2023-12-09T22:38:32.986Z,1.30
2023-12-09T22:41:01.292Z,0.65
2023-12-09T22:43:28.329Z,0.95
2023-12-09T22:45:55.286Z,0.93
2023-12-09T22:48:22.423Z,0.32
2023-12-09T22:50:50.429Z,0.70
2023-12-09T22:53:18.254Z,1.10
2023-12-09T22:55:45.172Z,1.02
2023-12-09T22:58:13.457Z,0.60
2023-12-09T23:00:40.434Z,0.82
2023-12-09T23:03:07.421Z,0.88
2023-12-09T23:05:34.473Z,0.73
2023-12-09T23:08:01.361Z,0.88
2023-12-09T23:10:28.334Z,0.50
2023-12-09T23:12:55.486Z,0.65
2023-12-09T23:15:23.947Z,0.57
2023-12-09T23:17:51.271Z,0.60
2023-12-09T23:20:18.518Z,0.50
2023-12-09T23:22:45.386Z,0.82
2023-12-09T23:25:12.414Z,1.25
2023-12-09T23:27:39.443Z,0.50
2023-12-09T23:30:08.333Z,1.38
2023-12-09T23:32:36.931Z,0.77
2023-12-09T23:35:04.286Z,0.52
2023-12-09T23:37:31.193Z,1.27
2023-12-09T23:39:58.113Z,0.75
2023-12-09T23:42:25.200Z,0.52
2023-12-09T23:44:52.202Z,0.85
2023-12-09T23:47:19.143Z,0.90
2023-12-09T23:49:47.508Z,1.17
2023-12-09T23:52:14.668Z,0.40
2023-12-09T23:54:41.751Z,0.77
2023-12-09T23:57:08.726Z,0.30
2023-12-09T23:59:35.749Z,0.68
